Time;durP1;ratioP1;P1;durP2;ratioP2;P2;SDS_P1;SDS_P2;PMS_P1;PMS_P2;Temp;Humidity;BMP_temperature;BMP_pressure;BME280_temperature;BME280_humidity;BME280_pressure;Samples;Min_cycle;Max_cycle;Signal;HPM_P1;HPM_P2
2022/12/15 00:39:01;;;;;;;7.63;6.15;;;1.40;82.90;;;;;;4926735;29;20220;-74
2022/12/15 00:41:32;;;;;;;8.38;5.25;;;1.40;82.80;;;;;;4923247;29;20673;-75
2022/12/15 00:44:01;;;;;;;9.00;5.53;;;1.40;82.80;;;;;;4915089;29;20208;-76
2022/12/15 01:22:32;;;;;;;6.80;4.65;;;1.30;82.60;;;;;;4910553;29;20206;-72
2022/12/15 01:25:01;;;;;;;7.43;5.13;;;1.30;82.70;;;;;;4915459;28;20715;-73
2022/12/15 01:27:29;;;;;;;8.90;6.38;;;1.30;82.70;;;;;;4912131;29;20304;-75
2022/12/15 01:29:59;;;;;;;7.65;5.47;;;1.30;82.70;;;;;;4909529;29;20657;-74
2022/12/15 01:32:27;;;;;;;7.70;5.40;;;1.30;82.70;;;;;;4910727;29;20235;-73
2022/12/15 01:34:55;;;;;;;7.05;4.65;;;1.30;82.60;;;;;;4909927;29;20248;-73
2022/12/15 01:37:24;;;;;;;9.93;5.07;;;1.30;82.60;;;;;;4909303;29;20761;-74
2022/12/15 01:42:38;;;;;;;9.20;6.32;;;1.30;82.60;;;;;;4915247;29;20662;-74
2022/12/15 01:45:45;;;;;;;8.93;5.95;;;1.30;82.60;;;;;;4909302;29;20620;-74
2022/12/15 01:48:18;;;;;;;8.43;6.40;;;1.30;82.60;;;;;;4906763;29;20224;-74
2022/12/15 01:50:51;;;;;;;9.30;6.32;;;1.30;82.60;;;;;;4918573;29;20237;-75
2022/12/15 01:53:19;;;;;;;6.82;4.40;;;1.30;82.60;;;;;;4909155;29;21308;-75
2022/12/15 01:55:48;;;;;;;8.13;6.15;;;1.30;82.60;;;;;;4910182;29;20616;-74
2022/12/15 01:58:18;;;;;;;7.78;5.85;;;1.30;82.60;;;;;;4910178;29;20694;-76
2022/12/15 02:00:47;;;;;;;8.15;5.43;;;1.30;82.60;;;;;;4900283;29;20312;-75
2022/12/15 02:03:16;;;;;;;8.55;5.57;;;1.30;82.60;;;;;;4907455;29;20219;-74
2022/12/15 02:05:45;;;;;;;7.65;5.85;;;1.30;82.60;;;;;;4928748;29;20228;-76
2022/12/15 02:08:14;;;;;;;6.78;4.95;;;1.30;83.00;;;;;;4909402;29;20245;-74
2022/12/15 02:10:57;;;;;;;6.55;4.50;;;1.30;82.50;;;;;;4925492;29;20292;-74
2022/12/15 02:13:32;;;;;;;7.82;4.90;;;1.30;82.50;;;;;;4911466;29;20213;-74
2022/12/15 02:16:12;;;;;;;9.38;6.38;;;1.30;82.50;;;;;;4920598;29;20188;-75
2022/12/15 02:18:50;;;;;;;9.98;6.78;;;1.30;82.50;;;;;;4907651;29;20323;-73
2022/12/15 02:21:20;;;;;;;8.32;5.88;;;1.30;82.60;;;;;;4909746;29;20711;-72
2022/12/15 02:24:12;;;;;;;8.02;5.60;;;1.30;82.40;;;;;;4910217;29;20207;-74
2022/12/15 02:27:29;;;;;;;11.82;5.57;;;1.30;82.50;;;;;;4925099;29;20231;-73
2022/12/15 02:30:44;;;;;;;7.95;4.63;;;1.20;82.30;;;;;;4851721;29;20231;-74
2022/12/15 02:33:20;;;;;;;9.23;6.32;;;1.30;82.40;;;;;;4851218;29;20766;-74
2022/12/15 02:35:56;;;;;;;14.70;5.30;;;1.20;83.40;;;;;;4836713;29;20631;-74
2022/12/15 02:38:35;;;;;;;9.32;6.13;;;1.30;82.50;;;;;;4880273;28;20226;-74
2022/12/15 02:41:06;;;;;;;8.13;5.30;;;1.30;82.30;;;;;;4907990;29;20285;-73
2022/12/15 02:43:38;;;;;;;6.68;5.38;;;1.30;82.20;;;;;;4909376;29;20197;-74
2022/12/15 02:46:21;;;;;;;11.45;6.78;;;1.30;82.30;;;;;;4893536;29;20205;-74
2022/12/15 02:48:59;;;;;;;8.23;5.15;;;1.30;82.30;;;;;;4915621;29;20214;-74
2022/12/15 02:51:44;;;;;;;7.45;6.53;;;1.20;82.20;;;;;;4913701;29;20224;-74
2022/12/15 02:54:27;;;;;;;5.45;4.70;;;1.20;82.20;;;;;;4905134;29;20594;-74
2022/12/15 02:57:04;;;;;;;7.45;5.65;;;1.20;82.10;;;;;;4913381;29;20661;-74
2022/12/15 02:59:42;;;;;;;10.90;6.13;;;1.20;82.10;;;;;;4908940;29;20736;-75
2022/12/15 03:02:13;;;;;;;11.18;6.07;;;1.20;82.20;;;;;;4907290;29;20690;-74
2022/12/15 03:04:44;;;;;;;8.35;5.00;;;1.20;82.20;;;;;;4900602;29;20225;-76
2022/12/15 03:07:14;;;;;;;8.82;6.05;;;1.20;82.30;;;;;;4908861;29;20281;-75
2022/12/15 03:09:42;;;;;;;6.95;4.60;;;1.20;82.10;;;;;;4926405;28;20227;-74
2022/12/15 03:12:10;;;;;;;8.88;5.50;;;1.20;82.10;;;;;;4913431;29;20705;-74
2022/12/15 03:14:39;;;;;;;8.93;6.38;;;1.20;82.10;;;;;;4923740;29;20659;-75
2022/12/15 03:17:07;;;;;;;7.82;5.78;;;1.20;82.10;;;;;;4902059;29;20317;-74
2022/12/15 03:19:37;;;;;;;7.63;5.65;;;1.20;82.10;;;;;;4922725;28;20311;-74
2022/12/15 03:22:05;;;;;;;9.30;6.57;;;1.20;82.10;;;;;;4924506;29;20585;-72
2022/12/15 03:24:34;;;;;;;9.35;6.22;;;1.20;82.10;;;;;;4905058;29;20229;-74
2022/12/15 03:27:02;;;;;;;7.47;5.60;;;1.20;82.00;;;;;;4924392;29;20276;-74
2022/12/15 03:29:30;;;;;;;6.18;5.22;;;1.20;82.10;;;;;;4909422;29;20865;-74
2022/12/15 03:31:59;;;;;;;9.20;5.85;;;1.20;82.10;;;;;;4906314;29;20217;-74
2022/12/15 03:34:27;;;;;;;10.25;5.63;;;1.20;82.10;;;;;;4924151;29;20225;-73
2022/12/15 03:36:58;;;;;;;9.85;5.53;;;1.20;82.10;;;;;;4898583;29;20197;-75
2022/12/15 03:39:26;;;;;;;10.85;6.22;;;1.10;82.00;;;;;;4904492;29;20313;-74
2022/12/15 03:41:54;;;;;;;8.20;5.40;;;1.10;82.00;;;;;;4891854;29;20564;-73
2022/12/15 03:44:23;;;;;;;6.70;4.88;;;1.10;82.10;;;;;;4906999;29;20626;-77
2022/12/15 03:46:51;;;;;;;6.95;5.03;;;1.10;82.00;;;;;;4911826;29;20196;-75
2022/12/15 03:49:19;;;;;;;8.68;5.55;;;1.10;82.00;;;;;;4914027;29;20233;-75
2022/12/15 03:51:48;;;;;;;8.30;5.28;;;1.10;82.10;;;;;;4928265;29;20212;-73
2022/12/15 03:54:17;;;;;;;8.15;6.13;;;1.10;82.00;;;;;;4912144;29;20569;-75
2022/12/15 03:56:46;;;;;;;6.95;4.50;;;1.10;81.90;;;;;;4926372;29;20283;-73
2022/12/15 03:59:14;;;;;;;6.97;5.05;;;1.10;82.00;;;;;;4910286;29;20643;-75
2022/12/15 04:01:47;;;;;;;8.82;5.20;;;1.10;81.90;;;;;;4911150;29;20209;-75
2022/12/15 04:04:15;;;;;;;6.15;5.38;;;1.10;81.90;;;;;;4913120;29;20201;-74
2022/12/15 04:06:44;;;;;;;6.10;4.28;;;1.10;81.90;;;;;;4914815;29;20200;-74
2022/12/15 04:09:12;;;;;;;7.30;5.22;;;1.10;82.00;;;;;;4912630;29;20637;-73
2022/12/15 04:11:41;;;;;;;9.32;5.65;;;1.10;81.90;;;;;;4926645;29;20221;-74
2022/12/15 04:14:10;;;;;;;9.90;5.60;;;1.10;82.00;;;;;;4911381;29;20212;-74
2022/12/15 04:16:38;;;;;;;7.57;5.20;;;1.10;82.00;;;;;;4915516;29;20794;-74
2022/12/15 04:21:52;;;;;;;7.80;5.30;;;1.10;81.80;;;;;;4929705;29;20457;-73
2022/12/15 05:33:40;;;;;;;8.00;5.55;;;1.00;81.50;;;;;;4904661;29;20249;-72
2022/12/15 05:36:09;;;;;;;8.45;5.10;;;1.00;81.50;;;;;;4915529;29;20318;-74
2022/12/15 05:38:37;;;;;;;10.32;6.30;;;0.90;81.30;;;;;;4925161;29;20243;-73
2022/12/15 05:41:06;;;;;;;7.22;5.43;;;0.90;81.40;;;;;;4914084;29;20209;-74
2022/12/15 05:43:34;;;;;;;8.93;6.05;;;0.90;81.40;;;;;;4911198;29;20744;-75
2022/12/15 05:46:04;;;;;;;8.40;5.47;;;0.90;81.40;;;;;;4907851;29;20198;-74
2022/12/15 05:48:32;;;;;;;9.07;6.20;;;0.90;81.30;;;;;;4912462;29;20667;-74
2022/12/15 05:51:05;;;;;;;9.52;5.20;;;0.90;81.40;;;;;;4908329;29;20285;-73
2022/12/15 05:53:33;;;;;;;8.27;5.28;;;0.90;81.40;;;;;;4925290;29;20765;-74
2022/12/15 05:56:02;;;;;;;7.70;5.57;;;0.90;81.40;;;;;;4910715;29;20684;-76
2022/12/15 05:58:30;;;;;;;10.20;5.22;;;0.90;81.50;;;;;;4912084;29;20229;-73
2022/12/15 06:01:04;;;;;;;6.55;5.13;;;0.90;81.40;;;;;;4917338;29;20292;-74
2022/12/15 06:03:32;;;;;;;12.10;6.05;;;0.90;81.30;;;;;;4929035;29;20202;-73
2022/12/15 06:06:02;;;;;;;8.15;5.57;;;0.90;81.30;;;;;;4930078;29;20248;-74
2022/12/15 06:08:34;;;;;;;8.38;5.35;;;0.90;81.40;;;;;;4908270;29;20591;-73
2022/12/15 06:11:02;;;;;;;8.90;6.35;;;0.90;81.40;;;;;;4922852;29;20769;-74
2022/12/15 06:13:33;;;;;;;10.23;6.13;;;0.90;81.40;;;;;;4917736;29;20303;-74
2022/12/15 06:16:03;;;;;;;6.85;5.10;;;0.90;81.30;;;;;;4915348;29;20228;-74
2022/12/15 06:18:36;;;;;;;8.43;4.97;;;0.90;81.30;;;;;;4913752;29;20304;-75
2022/12/15 06:21:06;;;;;;;8.50;6.05;;;0.90;81.30;;;;;;4905466;29;20205;-73
2022/12/15 06:23:37;;;;;;;9.75;5.95;;;0.90;81.40;;;;;;4912811;29;20189;-73
2022/12/15 06:26:10;;;;;;;9.23;6.10;;;0.90;81.20;;;;;;4916239;29;20662;-74
2022/12/15 06:28:38;;;;;;;8.60;6.13;;;0.90;81.30;;;;;;4910810;29;20225;-74
2022/12/15 06:31:09;;;;;;;9.55;5.28;;;0.80;81.20;;;;;;4931403;29;20276;-74
2022/12/15 06:33:39;;;;;;;7.97;5.32;;;0.90;81.30;;;;;;4903385;29;20236;-73
2022/12/15 06:36:09;;;;;;;9.82;5.13;;;0.90;81.20;;;;;;4908986;29;20296;-74
2022/12/15 06:38:42;;;;;;;8.35;5.70;;;0.80;81.10;;;;;;4910382;28;20315;-75
2022/12/15 06:41:12;;;;;;;7.80;5.18;;;0.80;81.10;;;;;;4905671;29;20206;-73
2022/12/15 06:43:40;;;;;;;6.72;5.32;;;0.80;81.10;;;;;;4909523;29;20288;-74
2022/12/15 06:46:09;;;;;;;7.57;5.30;;;0.80;81.10;;;;;;4909177;29;20296;-73
2022/12/15 06:48:38;;;;;;;8.15;4.80;;;0.80;81.20;;;;;;4932453;29;21060;-74
2022/12/15 06:51:07;;;;;;;6.15;5.55;;;0.90;81.30;;;;;;4915140;29;20231;-73
2022/12/15 06:53:47;;;;;;;8.13;5.00;;;0.80;81.20;;;;;;4905949;29;21593;-73
2022/12/15 06:56:19;;;;;;;8.23;4.95;;;0.80;81.10;;;;;;4910513;29;20209;-75
2022/12/15 06:58:49;;;;;;;8.23;6.30;;;0.80;81.10;;;;;;4907265;29;20655;-76
2022/12/15 07:01:18;;;;;;;9.25;6.00;;;0.80;81.00;;;;;;4917495;29;20215;-73
2022/12/15 07:03:46;;;;;;;9.90;6.05;;;0.80;81.10;;;;;;4913475;29;20224;-74
2022/12/15 07:06:16;;;;;;;10.27;6.18;;;0.80;81.10;;;;;;4925359;29;20264;-74
2022/12/15 07:08:51;;;;;;;10.88;5.53;;;0.80;81.10;;;;;;4915449;29;20592;-75
2022/12/15 07:11:22;;;;;;;7.53;5.45;;;0.80;81.00;;;;;;4909281;29;20204;-74
2022/12/15 07:13:51;;;;;;;8.85;6.20;;;0.80;81.10;;;;;;4908437;29;20225;-74
2022/12/15 07:16:23;;;;;;;6.88;4.40;;;0.80;81.10;;;;;;4925325;29;20239;-73
2022/12/15 07:18:52;;;;;;;8.00;5.32;;;0.80;81.10;;;;;;4909801;29;20228;-73
2022/12/15 07:21:20;;;;;;;9.57;5.75;;;0.80;81.00;;;;;;4925711;29;20205;-75
2022/12/15 07:23:50;;;;;;;8.55;5.75;;;0.80;81.00;;;;;;4908424;29;20235;-73
2022/12/15 07:26:24;;;;;;;8.20;5.53;;;0.80;81.00;;;;;;4932947;29;20522;-75
2022/12/15 07:28:53;;;;;;;9.75;5.70;;;0.80;81.00;;;;;;4915802;29;20693;-75
2022/12/15 07:31:22;;;;;;;6.90;5.03;;;0.80;81.00;;;;;;4925783;29;20565;-74
2022/12/15 07:33:53;;;;;;;10.07;6.85;;;0.80;81.00;;;;;;4908492;29;20769;-74
2022/12/15 07:36:22;;;;;;;5.53;4.65;;;0.80;81.00;;;;;;4909009;29;20209;-74
2022/12/15 07:38:52;;;;;;;8.60;5.03;;;0.70;80.90;;;;;;4902163;29;20265;-75
2022/12/15 07:41:20;;;;;;;6.60;4.88;;;0.70;81.00;;;;;;4913329;29;20201;-75
2022/12/15 07:43:49;;;;;;;6.60;4.60;;;0.70;80.90;;;;;;4909575;29;20289;-74
2022/12/15 07:46:18;;;;;;;8.73;5.30;;;0.70;81.00;;;;;;4915401;29;20639;-72
2022/12/15 07:48:47;;;;;;;8.70;5.00;;;0.70;80.90;;;;;;4905542;29;20251;-73
2022/12/15 07:51:18;;;;;;;8.02;5.22;;;0.70;81.00;;;;;;4916621;29;20205;-73
2022/12/15 07:53:49;;;;;;;5.95;4.65;;;0.70;81.00;;;;;;4919214;29;20197;-73
2022/12/15 07:56:19;;;;;;;7.90;4.70;;;0.70;80.80;;;;;;4913509;29;20276;-68
2022/12/15 07:58:48;;;;;;;5.90;4.85;;;0.70;80.90;;;;;;4921536;29;20233;-68
2022/12/15 08:01:17;;;;;;;6.75;4.93;;;0.70;80.90;;;;;;4910960;29;20209;-68
2022/12/15 08:03:46;;;;;;;5.88;4.38;;;0.70;81.00;;;;;;4914184;29;20418;-69
2022/12/15 08:06:16;;;;;;;8.80;5.45;;;0.70;80.90;;;;;;4911737;29;20209;-69
2022/12/15 08:08:45;;;;;;;5.90;5.25;;;0.70;81.00;;;;;;4897706;29;20288;-68
2022/12/15 08:11:21;;;;;;;7.88;5.25;;;0.70;80.80;;;;;;4916635;29;20237;-69
2022/12/15 08:13:51;;;;;;;9.48;6.30;;;0.70;80.80;;;;;;4924222;29;20693;-69
2022/12/15 08:16:40;;;;;;;7.28;4.30;;;0.70;80.80;;;;;;4931374;29;20197;-68
2022/12/15 08:19:12;;;;;;;6.45;4.82;;;0.70;80.90;;;;;;4914097;29;20229;-70
2022/12/15 08:21:42;;;;;;;6.97;4.50;;;0.70;80.80;;;;;;4908048;29;20209;-70
2022/12/15 08:24:11;;;;;;;5.97;4.30;;;0.70;82.10;;;;;;4906294;29;20636;-69
2022/12/15 08:26:41;;;;;;;7.38;4.95;;;0.70;80.90;;;;;;4923420;29;20196;-70
2022/12/15 08:29:13;;;;;;;5.60;4.28;;;0.70;80.90;;;;;;4910856;29;20284;-70
2022/12/15 08:32:01;;;;;;;7.47;4.78;;;0.70;80.80;;;;;;4923908;29;20241;-69
2022/12/15 08:34:30;;;;;;;6.85;5.35;;;0.70;80.80;;;;;;4906083;29;20238;-68
2022/12/15 08:36:58;;;;;;;8.02;6.10;;;0.70;80.70;;;;;;4917788;29;20205;-68
2022/12/15 08:39:27;;;;;;;9.02;5.50;;;0.70;80.30;;;;;;4913530;29;20233;-68
2022/12/15 08:41:57;;;;;;;9.18;5.35;;;0.60;80.60;;;;;;4914838;29;20740;-70
2022/12/15 08:44:25;;;;;;;8.27;4.97;;;0.70;80.80;;;;;;4916236;29;20240;-69
2022/12/15 08:46:54;;;;;;;6.88;4.30;;;0.60;80.70;;;;;;4913917;29;20205;-70
2022/12/15 08:49:22;;;;;;;8.85;5.50;;;0.60;80.60;;;;;;4934396;29;20755;-70
2022/12/15 08:51:51;;;;;;;9.52;4.65;;;0.60;80.60;;;;;;4916061;29;20631;-68
2022/12/15 08:54:20;;;;;;;7.40;5.35;;;0.60;80.60;;;;;;4909722;29;20304;-68
2022/12/15 08:56:49;;;;;;;7.32;5.00;;;0.60;80.60;;;;;;4908284;29;20196;-68
2022/12/15 08:59:19;;;;;;;5.07;4.57;;;0.60;80.60;;;;;;4917309;29;20256;-69
2022/12/15 09:01:47;;;;;;;8.18;5.10;;;0.60;80.70;;;;;;4919234;29;20281;-69
2022/12/15 09:04:16;;;;;;;8.60;4.53;;;0.60;80.60;;;;;;4912887;29;20204;-69
2022/12/15 09:06:45;;;;;;;9.15;4.95;;;0.60;80.60;;;;;;4920062;29;20681;-69
2022/12/15 09:09:18;;;;;;;7.78;4.70;;;0.60;80.60;;;;;;4925566;29;20237;-69
2022/12/15 09:11:47;;;;;;;7.10;5.32;;;0.60;80.60;;;;;;4918834;29;20210;-69
2022/12/15 09:14:16;;;;;;;8.27;5.20;;;0.60;80.50;;;;;;4912394;29;20232;-70
2022/12/15 09:16:46;;;;;;;5.50;3.88;;;0.60;80.50;;;;;;4927364;29;20205;-70
2022/12/15 09:19:20;;;;;;;6.25;4.82;;;0.60;80.50;;;;;;4920859;29;20223;-70
2022/12/15 09:21:48;;;;;;;8.80;5.20;;;0.60;80.40;;;;;;4914975;29;20669;-69
2022/12/15 09:24:17;;;;;;;8.85;4.93;;;0.60;80.20;;;;;;4927152;29;20193;-69
2022/12/15 09:26:56;;;;;;;8.95;5.70;;;0.60;80.40;;;;;;4916196;29;20200;-70
2022/12/15 09:29:24;;;;;;;8.48;5.82;;;0.60;80.20;;;;;;4911100;29;20367;-69
2022/12/15 09:31:54;;;;;;;8.05;5.80;;;0.60;80.30;;;;;;4912969;29;20198;-68
2022/12/15 09:34:22;;;;;;;6.97;6.28;;;0.60;80.30;;;;;;4918220;28;20323;-68
2022/12/15 09:36:51;;;;;;;6.75;4.80;;;0.60;80.30;;;;;;4912668;29;20547;-69
2022/12/15 09:39:20;;;;;;;5.65;4.53;;;0.60;80.40;;;;;;4908394;29;20237;-69
2022/12/15 09:41:54;;;;;;;6.57;4.97;;;0.60;80.30;;;;;;4907232;29;20240;-69
2022/12/15 09:44:25;;;;;;;9.77;5.05;;;0.60;80.30;;;;;;4923419;28;20315;-69
2022/12/15 09:47:18;;;;;;;7.47;5.18;;;0.60;80.30;;;;;;4910915;29;20228;-68
2022/12/15 09:49:54;;;;;;;8.57;4.78;;;0.60;80.30;;;;;;4915429;28;20231;-67
2022/12/15 09:52:26;;;;;;;8.52;5.35;;;0.60;80.30;;;;;;4912596;29;20193;-69
2022/12/15 09:54:54;;;;;;;6.80;4.50;;;0.60;80.30;;;;;;4912327;28;20312;-68
2022/12/15 09:57:35;;;;;;;5.72;4.07;;;0.60;80.30;;;;;;4907583;29;20193;-69
2022/12/15 10:00:19;;;;;;;5.13;3.90;;;0.60;80.30;;;;;;4925372;28;20229;-68
2022/12/15 10:03:40;;;;;;;8.98;4.88;;;0.60;80.40;;;;;;4910778;29;20271;-68
2022/12/15 10:06:13;;;;;;;6.32;4.70;;;0.60;80.30;;;;;;4910506;29;20309;-69
2022/12/15 10:08:48;;;;;;;6.03;3.72;;;0.60;80.20;;;;;;4923392;29;20239;-68
2022/12/15 10:11:31;;;;;;;6.70;4.47;;;0.60;80.30;;;;;;4919600;29;20197;-69
2022/12/15 10:14:07;;;;;;;5.75;4.68;;;0.60;80.30;;;;;;4901627;29;20309;-70
2022/12/15 10:16:45;;;;;;;4.75;4.00;;;0.60;80.30;;;;;;4909874;29;20741;-69
2022/12/15 10:19:24;;;;;;;6.40;4.05;;;0.60;80.40;;;;;;4922232;29;20225;-67
2022/12/15 10:21:53;;;;;;;7.90;4.03;;;0.60;80.40;;;;;;4912017;29;20231;-68
2022/12/15 10:24:23;;;;;;;4.90;3.35;;;0.50;80.30;;;;;;4919198;29;20229;-67
2022/12/15 10:27:29;;;;;;;6.57;3.97;;;0.50;80.40;;;;;;4922152;29;20185;-69
2022/12/15 10:30:01;;;;;;;6.10;3.78;;;0.60;80.50;;;;;;4906823;29;20763;-69
2022/12/15 10:32:41;;;;;;;7.50;4.40;;;0.50;80.40;;;;;;4910621;29;20202;-68
2022/12/15 10:35:16;;;;;;;4.20;3.80;;;0.50;80.40;;;;;;4907628;28;20538;-69
2022/12/15 10:37:44;;;;;;;5.15;3.58;;;0.50;80.50;;;;;;4933699;29;20627;-68
2022/12/15 10:40:19;;;;;;;4.95;3.40;;;0.60;80.50;;;;;;4908317;29;20225;-68
2022/12/15 10:42:50;;;;;;;6.57;4.72;;;0.50;80.50;;;;;;4908832;29;20258;-69
2022/12/15 10:45:38;;;;;;;9.40;5.47;;;0.50;80.50;;;;;;4911083;28;20213;-69
2022/12/15 10:48:17;;;;;;;8.95;4.82;;;0.50;80.40;;;;;;4915084;29;20731;-69
2022/12/15 10:50:47;;;;;;;9.35;4.22;;;0.50;81.60;;;;;;4921782;29;20228;-68
2022/12/15 10:53:42;;;;;;;6.05;4.35;;;0.50;80.40;;;;;;4909417;29;20196;-69
2022/12/15 10:56:19;;;;;;;7.38;4.65;;;0.50;80.40;;;;;;4910005;29;20221;-67
2022/12/15 10:58:50;;;;;;;5.63;4.13;;;0.50;80.50;;;;;;4906305;29;20229;-69
2022/12/15 11:01:20;;;;;;;5.82;3.90;;;0.50;80.50;;;;;;4923137;29;20201;-68
2022/12/15 11:03:51;;;;;;;7.80;4.40;;;0.50;80.50;;;;;;4921547;29;20394;-68
2022/12/15 11:06:42;;;;;;;7.53;4.13;;;0.50;80.50;;;;;;4917286;29;20216;-70
2022/12/15 11:09:34;;;;;;;6.47;4.65;;;0.50;80.50;;;;;;4908156;29;20714;-69
2022/12/15 11:15:02;;;;;;;5.47;4.20;;;0.50;80.50;;;;;;4922542;28;20578;-69
2022/12/15 11:17:40;;;;;;;8.15;5.20;;;0.50;80.50;;;;;;4909320;29;20779;-70
2022/12/15 11:20:20;;;;;;;7.32;4.70;;;0.50;80.50;;;;;;4913958;29;20991;-70
2022/12/15 11:22:56;;;;;;;5.60;3.70;;;0.50;80.50;;;;;;4915280;29;20195;-69
2022/12/15 11:25:35;;;;;;;8.05;6.10;;;0.50;80.50;;;;;;4907965;29;20225;-68
2022/12/15 11:28:10;;;;;;;5.70;4.50;;;0.50;81.80;;;;;;4914818;29;20251;-69
2022/12/15 11:30:45;;;;;;;5.05;3.83;;;0.50;80.60;;;;;;4911736;29;20220;-68
2022/12/15 11:33:14;;;;;;;6.50;5.32;;;0.50;80.60;;;;;;4919145;29;20199;-69
2022/12/15 11:36:00;;;;;;;7.18;4.80;;;0.50;80.60;;;;;;4923752;29;20228;-71
2022/12/15 11:38:38;;;;;;;10.07;4.95;;;0.50;80.70;;;;;;4908211;29;20659;-69
2022/12/15 11:41:14;;;;;;;11.45;6.95;;;0.50;80.60;;;;;;4932641;29;20216;-68
2022/12/15 11:44:06;;;;;;;8.52;5.20;;;0.50;80.60;;;;;;4910233;29;20215;-68
2022/12/15 11:46:42;;;;;;;8.32;5.07;;;0.50;80.70;;;;;;4909773;29;20198;-68
2022/12/15 11:49:40;;;;;;;7.18;4.72;;;0.50;82.10;;;;;;4898318;29;20233;-69
2022/12/15 11:52:17;;;;;;;6.43;4.53;;;0.50;80.80;;;;;;4921893;29;20205;-75
2022/12/15 11:54:53;;;;;;;9.50;5.55;;;0.50;81.00;;;;;;4916697;28;20232;-74
2022/12/15 11:57:48;;;;;;;9.30;5.57;;;0.50;80.90;;;;;;4922430;29;20680;-74
2022/12/15 12:00:20;;;;;;;9.93;5.72;;;0.50;80.90;;;;;;4910028;29;20233;-74
2022/12/15 12:03:07;;;;;;;6.93;4.88;;;0.50;81.00;;;;;;4904417;29;20292;-74
2022/12/15 12:05:48;;;;;;;6.22;4.60;;;0.50;81.00;;;;;;4910322;29;20225;-74
2022/12/15 12:08:35;;;;;;;6.32;3.55;;;0.50;81.00;;;;;;4928895;29;20227;-72
2022/12/15 12:11:12;;;;;;;5.53;3.50;;;0.50;81.10;;;;;;4908288;29;20277;-75
2022/12/15 12:14:17;;;;;;;5.28;3.88;;;0.50;81.00;;;;;;4916388;29;20846;-75
2022/12/15 12:17:08;;;;;;;7.55;4.80;;;0.50;81.00;;;;;;4918530;29;20350;-74
2022/12/15 12:19:59;;;;;;;6.50;4.25;;;0.50;81.10;;;;;;4912217;29;20277;-73
2022/12/15 12:22:50;;;;;;;7.25;5.00;;;0.50;81.10;;;;;;5130451;27;20555;-48
2022/12/15 12:25:22;;;;;;;10.65;6.53;;;0.50;81.10;;;;;;5079793;28;20272;-50
2022/12/15 12:27:56;;;;;;;6.63;4.40;;;0.50;81.10;;;;;;5084512;28;20252;-50
2022/12/15 12:30:27;;;;;;;6.22;3.97;;;0.50;81.20;;;;;;5091178;28;20221;-50
2022/12/15 12:33:03;;;;;;;8.02;5.30;;;0.50;81.10;;;;;;5079703;28;20237;-50
2022/12/15 12:35:38;;;;;;;7.75;4.32;;;0.50;81.20;;;;;;5089665;28;20712;-48
2022/12/15 12:38:11;;;;;;;6.07;4.07;;;0.50;81.30;;;;;;5106317;27;20189;-49
2022/12/15 12:40:52;;;;;;;6.97;4.65;;;0.50;81.30;;;;;;5086853;28;20222;-51
2022/12/15 12:43:32;;;;;;;6.38;4.47;;;0.50;81.20;;;;;;5084550;28;20192;-51
2022/12/15 12:46:07;;;;;;;6.18;4.50;;;0.50;81.30;;;;;;5112383;27;20314;-49
2022/12/15 12:48:40;;;;;;;6.93;4.70;;;0.50;81.30;;;;;;5083652;28;20666;-49
2022/12/15 12:51:19;;;;;;;6.88;4.20;;;0.50;81.30;;;;;;5091701;28;20183;-49
2022/12/15 12:53:50;;;;;;;9.55;6.90;;;0.50;81.50;;;;;;5086576;28;20702;-50
2022/12/15 12:56:34;;;;;;;6.70;4.43;;;0.50;81.30;;;;;;5062274;28;20196;-48
2022/12/15 12:59:07;;;;;;;9.65;5.00;;;0.50;81.50;;;;;;5071635;28;20191;-49
2022/12/15 13:01:37;;;;;;;8.75;4.38;;;0.50;81.40;;;;;;5082194;28;20579;-50
2022/12/15 13:04:12;;;;;;;8.10;4.20;;;0.50;81.50;;;;;;5089875;28;20710;-49
2022/12/15 13:07:02;;;;;;;7.20;4.53;;;0.50;81.40;;;;;;5090211;28;20667;-48
2022/12/15 13:09:42;;;;;;;7.53;4.28;;;0.50;81.50;;;;;;5089960;28;20701;-49
2022/12/15 13:12:46;;;;;;;6.38;4.28;;;0.50;81.60;;;;;;5087612;28;20241;-51
2022/12/15 13:15:39;;;;;;;5.60;4.22;;;0.50;81.50;;;;;;5056122;28;20562;-50
2022/12/15 13:18:15;;;;;;;6.53;4.70;;;0.50;81.50;;;;;;5096016;28;20685;-48
2022/12/15 13:20:46;;;;;;;4.65;3.55;;;0.50;81.50;;;;;;5081078;28;20222;-49
2022/12/15 13:23:42;;;;;;;8.18;4.32;;;0.50;81.60;;;;;;5085231;28;20193;-48
2022/12/15 13:26:19;;;;;;;6.38;4.65;;;0.50;81.50;;;;;;5044955;28;20679;-50
2022/12/15 13:28:52;;;;;;;9.00;5.68;;;0.50;81.60;;;;;;5038984;28;20274;-48
2022/12/15 13:31:33;;;;;;;7.88;4.90;;;0.50;81.80;;;;;;5040677;28;20557;-48
2022/12/15 13:34:27;;;;;;;7.53;4.80;;;0.50;81.80;;;;;;5050116;28;20223;-51
2022/12/15 13:37:02;;;;;;;7.22;4.55;;;0.50;81.80;;;;;;5058825;28;20597;-49
2022/12/15 13:39:57;;;;;;;5.25;4.55;;;0.50;81.90;;;;;;5081514;28;20226;-48
2022/12/15 13:42:45;;;;;;;6.45;5.15;;;0.50;81.70;;;;;;5041400;28;20222;-49
2022/12/15 13:45:49;;;;;;;6.43;4.40;;;0.50;81.80;;;;;;5053127;28;20265;-49
2022/12/15 13:48:31;;;;;;;6.70;4.30;;;0.50;81.90;;;;;;5042106;28;20277;-49
2022/12/15 13:51:29;;;;;;;5.32;4.03;;;0.50;81.80;;;;;;5059944;28;20212;-49
2022/12/15 13:54:11;;;;;;;8.60;4.65;;;0.50;81.80;;;;;;5043412;28;20196;-49
2022/12/15 13:56:52;;;;;;;7.43;5.07;;;0.50;81.80;;;;;;5050500;28;20192;-48
2022/12/15 13:59:30;;;;;;;7.18;4.60;;;0.50;81.80;;;;;;5058931;28;20771;-49
2022/12/15 14:01:59;;;;;;;7.90;3.78;;;0.50;81.80;;;;;;5051141;28;20277;-48
2022/12/15 14:04:28;;;;;;;5.18;4.38;;;0.50;81.80;;;;;;5061191;28;20328;-49
2022/12/15 14:07:00;;;;;;;5.00;3.85;;;0.50;81.90;;;;;;5086271;28;20191;-49
2022/12/15 14:09:32;;;;;;;8.63;4.65;;;0.50;81.90;;;;;;5050503;28;20219;-49
2022/12/15 14:12:03;;;;;;;6.57;3.72;;;0.50;82.00;;;;;;5050764;28;20191;-51
2022/12/15 14:14:36;;;;;;;6.45;4.10;;;0.50;81.80;;;;;;5058155;28;20270;-50
2022/12/15 14:17:09;;;;;;;7.43;4.93;;;0.50;81.90;;;;;;5063589;28;20198;-49
2022/12/15 14:19:39;;;;;;;6.68;4.07;;;0.50;81.90;;;;;;5048783;28;20317;-50
2022/12/15 14:22:21;;;;;;;5.22;4.03;;;0.50;81.90;;;;;;5050389;28;20273;-51
2022/12/15 14:25:02;;;;;;;7.00;3.92;;;0.40;81.80;;;;;;5047980;28;20434;-49
2022/12/15 14:27:32;;;;;;;6.10;4.72;;;0.40;81.80;;;;;;5058478;28;20203;-49
2022/12/15 14:30:19;;;;;;;7.93;5.03;;;0.40;81.80;;;;;;5083247;28;20223;-51
2022/12/15 14:32:51;;;;;;;5.15;3.75;;;0.50;83.10;;;;;;5074775;28;20225;-49
2022/12/15 14:35:25;;;;;;;6.78;5.00;;;0.40;81.80;;;;;;5049157;28;20224;-48
2022/12/15 14:37:56;;;;;;;9.05;5.93;;;0.40;81.80;;;;;;5045400;28;20193;-49
2022/12/15 14:40:26;;;;;;;5.43;4.45;;;0.40;81.80;;;;;;5051581;28;20220;-49
2022/12/15 14:42:57;;;;;;;7.75;4.88;;;0.40;81.70;;;;;;5049895;28;20212;-49
2022/12/15 14:45:30;;;;;;;9.35;5.68;;;0.40;81.80;;;;;;5048046;28;20262;-49
2022/12/15 14:48:01;;;;;;;6.70;4.90;;;0.40;81.80;;;;;;5066679;28;20215;-48
2022/12/15 14:50:50;;;;;;;8.63;5.65;;;0.40;81.90;;;;;;5026175;28;20248;-50
2022/12/15 14:53:22;;;;;;;7.38;3.80;;;0.40;82.00;;;;;;5030750;28;20658;-50
2022/12/15 14:55:50;;;;;;;5.75;4.13;;;0.40;81.90;;;;;;5053289;28;20224;-49
2022/12/15 14:58:29;;;;;;;8.35;5.38;;;0.40;81.90;;;;;;5054387;28;20249;-47
2022/12/15 15:01:00;;;;;;;5.68;4.10;;;0.40;81.90;;;;;;5064937;28;20224;-51
2022/12/15 15:03:37;;;;;;;6.55;4.03;;;0.40;82.00;;;;;;5062273;28;20396;-50
2022/12/15 15:06:15;;;;;;;7.65;5.47;;;0.40;81.90;;;;;;5064417;28;20306;-49
2022/12/15 15:08:48;;;;;;;9.52;5.30;;;0.40;82.00;;;;;;5057457;28;20238;-49
2022/12/15 15:11:28;;;;;;;6.80;4.97;;;0.40;82.20;;;;;;5071478;28;20205;-48
2022/12/15 15:14:00;;;;;;;9.20;5.05;;;0.40;82.00;;;;;;5065011;28;20809;-49
2022/12/15 15:16:33;;;;;;;8.63;5.30;;;0.40;82.00;;;;;;5066021;28;20609;-49
2022/12/15 15:19:04;;;;;;;11.02;5.45;;;0.40;82.00;;;;;;5064315;28;20188;-50
2022/12/15 15:21:36;;;;;;;8.35;5.13;;;0.40;82.00;;;;;;5081729;28;20410;-49
2022/12/15 15:24:22;;;;;;;8.25;4.53;;;0.40;82.00;;;;;;5063361;28;20223;-49
2022/12/15 15:26:51;;;;;;;6.55;4.80;;;0.40;81.90;;;;;;5058168;28;20715;-48
2022/12/15 15:29:37;;;;;;;10.25;5.35;;;0.40;82.00;;;;;;5066513;28;20556;-50
2022/12/15 15:32:16;;;;;;;10.77;6.15;;;0.40;82.00;;;;;;5065766;28;20192;-50
2022/12/15 15:34:45;;;;;;;7.53;6.03;;;0.40;82.10;;;;;;5068866;28;20750;-50
2022/12/15 15:37:18;;;;;;;10.55;6.50;;;0.40;82.10;;;;;;5078188;28;20195;-48
2022/12/15 15:39:49;;;;;;;8.27;5.75;;;0.40;82.10;;;;;;5058798;28;20302;-49
2022/12/15 15:42:17;;;;;;;10.57;5.55;;;0.40;82.10;;;;;;5065596;28;20211;-49
2022/12/15 15:44:46;;;;;;;10.02;6.35;;;0.40;82.10;;;;;;5090309;28;20294;-51
2022/12/15 15:47:24;;;;;;;8.02;5.07;;;0.40;82.10;;;;;;5063721;28;20274;-50
2022/12/15 15:49:54;;;;;;;7.70;5.43;;;0.40;82.10;;;;;;5065087;28;20226;-49
2022/12/15 15:52:22;;;;;;;7.13;5.25;;;0.40;82.10;;;;;;5073364;28;20667;-49
2022/12/15 15:54:53;;;;;;;10.30;6.65;;;0.40;82.10;;;;;;5063541;28;20243;-50
2022/12/15 15:57:25;;;;;;;9.73;6.30;;;0.40;82.10;;;;;;5064813;28;20680;-48
2022/12/15 15:59:54;;;;;;;9.30;5.90;;;0.40;82.10;;;;;;5064373;28;20243;-50
2022/12/15 16:02:24;;;;;;;11.48;6.50;;;0.40;82.20;;;;;;5062933;28;20213;-48
2022/12/15 16:04:52;;;;;;;8.80;5.70;;;0.40;82.10;;;;;;5064535;28;20227;-51